SBPA/POA METAR and TAF weather

Enter ICAO airport designator
Station Type Date Time Source
SBPA METAR 2020/04/04 00:00 UTC NOAA

SBPA 040000Z 21010KT 170V240 CAVOK 21/15 Q1013


Station Type Date Time Source
SBPA Decoded METAR 2020/04/04 00:00 UTC NOAA

Porto Alegre Aero-Porto , Brazil (SBPA) 30-00S 051-11W 3M
Apr 03, 2020 - 08:00 PM EDT / 2020.04.04 0000 UTC
Wind: from the SSW (210 degrees) at 12 MPH (10 KT) (direction variable):0
Visibility: greater than 7 mile(s):0
Temperature: 69 F (21 C)
Dew Point: 59 F (15 C)
Relative Humidity: 68%
Pressure (altimeter): 29.91 in. Hg (1013 hPa)
ob: SBPA 040000Z 21010KT 170V240 CAVOK 21/15 Q1013
cycle: 0

Station Type Date Time Source
SBPA TAF 2020/04/03 18:10 UTC NOAA

TAF SBPA 031500Z 0318/0418 27009KT 8000 SCT020 TN18/0408Z TX28/0417Z
BECMG 0414/0416 22008KT SCT020
RMK PEA

Example: see airport list